sensor_id;sensor_type;location;lat;lon;timestamp;pressure;altitude;pressure_sealevel;temperature;humidity
31595;BME280;18200;48.726;8.892;2023-02-26T00:03:58;96215.41;;;10.24;36.06
31595;BME280;18200;48.726;8.892;2023-02-26T00:07:59;96215.19;;;10.09;36.42
31595;BME280;18200;48.726;8.892;2023-02-26T00:11:59;96210.88;;;10.64;34.82
31595;BME280;18200;48.726;8.892;2023-02-26T00:16:00;96219.84;;;10.42;35.30
31595;BME280;18200;48.726;8.892;2023-02-26T00:20:02;96208.06;;;9.91;36.57
31595;BME280;18200;48.726;8.892;2023-02-26T00:24:03;96217.75;;;9.99;36.28
31595;BME280;18200;48.726;8.892;2023-02-26T00:28:06;96220.31;;;10.18;35.70
31595;BME280;18200;48.726;8.892;2023-02-26T00:32:07;96215.56;;;10.08;36.15
31595;BME280;18200;48.726;8.892;2023-02-26T00:36:18;96214.53;;;10.16;35.54
31595;BME280;18200;48.726;8.892;2023-02-26T00:40:45;96216.16;;;10.57;34.61
31595;BME280;18200;48.726;8.892;2023-02-26T00:44:46;96217.78;;;10.65;35.02
31595;BME280;18200;48.726;8.892;2023-02-26T00:53:25;96219.75;;;10.68;34.56
31595;BME280;18200;48.726;8.892;2023-02-26T00:57:27;96215.53;;;10.34;35.20
31595;BME280;18200;48.726;8.892;2023-02-26T01:01:28;96218.47;;;10.22;35.68
31595;BME280;18200;48.726;8.892;2023-02-26T01:05:29;96213.03;;;9.89;36.07
31595;BME280;18200;48.726;8.892;2023-02-26T01:09:31;96215.53;;;9.49;36.30
31595;BME280;18200;48.726;8.892;2023-02-26T01:13:32;96219.59;;;9.65;35.96
31595;BME280;18200;48.726;8.892;2023-02-26T01:17:48;96217.69;;;9.66;36.10
31595;BME280;18200;48.726;8.892;2023-02-26T01:21:58;96212.72;;;9.68;36.24
31595;BME280;18200;48.726;8.892;2023-02-26T01:26:10;96211.50;;;10.91;34.76
31595;BME280;18200;48.726;8.892;2023-02-26T01:30:13;96211.94;;;10.23;35.19
31595;BME280;18200;48.726;8.892;2023-02-26T01:34:17;96204.03;;;9.48;36.17
31595;BME280;18200;48.726;8.892;2023-02-26T01:38:40;96204.91;;;10.81;34.29
31595;BME280;18200;48.726;8.892;2023-02-26T01:42:45;96204.78;;;10.34;35.03
31595;BME280;18200;48.726;8.892;2023-02-26T01:51:04;96217.06;;;10.68;34.48
31595;BME280;18200;48.726;8.892;2023-02-26T01:55:05;96222.22;;;9.35;35.66
31595;BME280;18200;48.726;8.892;2023-02-26T01:59:09;96224.66;;;10.63;34.49
31595;BME280;18200;48.726;8.892;2023-02-26T02:03:11;96223.84;;;9.96;35.45
31595;BME280;18200;48.726;8.892;2023-02-26T02:07:12;96224.31;;;10.31;34.64
31595;BME280;18200;48.726;8.892;2023-02-26T02:11:13;96226.84;;;9.91;35.07
31595;BME280;18200;48.726;8.892;2023-02-26T02:15:31;96224.44;;;9.82;35.49
31595;BME280;18200;48.726;8.892;2023-02-26T02:20:19;96226.19;;;10.60;34.52
31595;BME280;18200;48.726;8.892;2023-02-26T02:24:36;96228.41;;;10.91;33.99
31595;BME280;18200;48.726;8.892;2023-02-26T02:29:02;96225.63;;;10.44;34.98
31595;BME280;18200;48.726;8.892;2023-02-26T02:33:14;96230.44;;;10.28;34.39
31595;BME280;18200;48.726;8.892;2023-02-26T02:37:22;96234.06;;;10.13;34.94
31595;BME280;18200;48.726;8.892;2023-02-26T02:41:29;96241.91;;;10.29;34.57
31595;BME280;18200;48.726;8.892;2023-02-26T02:45:41;96239.72;;;10.08;35.04
31595;BME280;18200;48.726;8.892;2023-02-26T02:49:47;96243.84;;;10.61;34.27
31595;BME280;18200;48.726;8.892;2023-02-26T02:54:14;96244.03;;;10.79;33.50
31595;BME280;18200;48.726;8.892;2023-02-26T02:58:21;96242.56;;;10.85;33.63
31595;BME280;18200;48.726;8.892;2023-02-26T03:02:31;96254.56;;;10.58;33.74
31595;BME280;18200;48.726;8.892;2023-02-26T03:06:34;96253.50;;;10.33;34.70
31595;BME280;18200;48.726;8.892;2023-02-26T03:10:35;96255.31;;;9.99;34.37
31595;BME280;18200;48.726;8.892;2023-02-26T03:14:36;96262.06;;;9.86;34.54
31595;BME280;18200;48.726;8.892;2023-02-26T03:19:02;96263.75;;;10.01;34.51
31595;BME280;18200;48.726;8.892;2023-02-26T03:23:10;96265.09;;;11.14;33.18
31595;BME280;18200;48.726;8.892;2023-02-26T03:27:33;96267.03;;;11.64;32.13
31595;BME280;18200;48.726;8.892;2023-02-26T03:31:41;96267.34;;;12.10;32.04
31595;BME280;18200;48.726;8.892;2023-02-26T03:35:49;96266.66;;;12.23;31.47
31595;BME280;18200;48.726;8.892;2023-02-26T03:39:55;96274.19;;;11.90;31.78
31595;BME280;18200;48.726;8.892;2023-02-26T03:44:17;96274.84;;;11.76;31.83
31595;BME280;18200;48.726;8.892;2023-02-26T03:48:26;96280.81;;;11.12;32.43
31595;BME280;18200;48.726;8.892;2023-02-26T03:52:33;96282.41;;;10.79;33.89
31595;BME280;18200;48.726;8.892;2023-02-26T03:56:56;96286.06;;;10.05;35.03
31595;BME280;18200;48.726;8.892;2023-02-26T04:01:40;96291.38;;;10.57;34.10
31595;BME280;18200;48.726;8.892;2023-02-26T04:05:47;96284.09;;;9.76;35.44
31595;BME280;18200;48.726;8.892;2023-02-26T04:09:50;96298.69;;;9.29;36.82
31595;BME280;18200;48.726;8.892;2023-02-26T04:13:51;96290.94;;;9.24;36.96
31595;BME280;18200;48.726;8.892;2023-02-26T04:17:52;96294.25;;;9.86;35.65
31595;BME280;18200;48.726;8.892;2023-02-26T04:21:52;96297.03;;;10.19;35.60
31595;BME280;18200;48.726;8.892;2023-02-26T04:25:53;96300.16;;;9.98;35.94
31595;BME280;18200;48.726;8.892;2023-02-26T04:29:54;96301.25;;;9.94;35.79
31595;BME280;18200;48.726;8.892;2023-02-26T04:33:54;96309.41;;;9.75;36.25
31595;BME280;18200;48.726;8.892;2023-02-26T04:37:55;96308.25;;;9.50;36.52
31595;BME280;18200;48.726;8.892;2023-02-26T04:41:56;96324.16;;;8.97;37.13
31595;BME280;18200;48.726;8.892;2023-02-26T04:45:57;96324.31;;;8.28;37.99
31595;BME280;18200;48.726;8.892;2023-02-26T04:49:57;96317.00;;;8.63;38.12
31595;BME280;18200;48.726;8.892;2023-02-26T04:53:59;96326.22;;;8.12;38.52
31595;BME280;18200;48.726;8.892;2023-02-26T04:58:00;96320.03;;;7.42;39.97
31595;BME280;18200;48.726;8.892;2023-02-26T05:02:00;96326.97;;;7.77;39.69
31595;BME280;18200;48.726;8.892;2023-02-26T05:06:01;96329.47;;;7.86;39.61
31595;BME280;18200;48.726;8.892;2023-02-26T05:10:01;96330.66;;;8.04;38.48
31595;BME280;18200;48.726;8.892;2023-02-26T05:14:02;96330.63;;;7.69;39.47
31595;BME280;18200;48.726;8.892;2023-02-26T05:18:02;96335.19;;;7.69;39.09
31595;BME280;18200;48.726;8.892;2023-02-26T05:22:03;96339.72;;;8.00;39.06
31595;BME280;18200;48.726;8.892;2023-02-26T05:26:03;96345.72;;;8.28;38.40
31595;BME280;18200;48.726;8.892;2023-02-26T05:30:04;96341.59;;;8.15;38.36
31595;BME280;18200;48.726;8.892;2023-02-26T05:34:06;96344.81;;;8.58;37.66
31595;BME280;18200;48.726;8.892;2023-02-26T05:38:07;96351.94;;;8.70;37.98
31595;BME280;18200;48.726;8.892;2023-02-26T05:42:07;96354.88;;;9.03;36.73
31595;BME280;18200;48.726;8.892;2023-02-26T05:46:08;96363.44;;;8.71;36.43
31595;BME280;18200;48.726;8.892;2023-02-26T05:50:09;96354.03;;;8.99;36.77
31595;BME280;18200;48.726;8.892;2023-02-26T05:54:10;96361.22;;;8.38;37.50
31595;BME280;18200;48.726;8.892;2023-02-26T05:58:10;96362.44;;;8.25;37.70
31595;BME280;18200;48.726;8.892;2023-02-26T06:02:11;96373.84;;;8.22;37.70
31595;BME280;18200;48.726;8.892;2023-02-26T06:06:12;96384.22;;;8.08;38.49
31595;BME280;18200;48.726;8.892;2023-02-26T06:10:15;96392.84;;;8.17;38.36
31595;BME280;18200;48.726;8.892;2023-02-26T06:14:15;96395.59;;;8.36;38.36
31595;BME280;18200;48.726;8.892;2023-02-26T06:18:16;96400.97;;;8.05;38.14
31595;BME280;18200;48.726;8.892;2023-02-26T06:22:16;96409.31;;;8.03;38.53
31595;BME280;18200;48.726;8.892;2023-02-26T06:26:17;96406.81;;;7.48;39.21
31595;BME280;18200;48.726;8.892;2023-02-26T06:30:17;96424.78;;;8.41;37.69
31595;BME280;18200;48.726;8.892;2023-02-26T06:34:18;96423.81;;;8.18;37.34
31595;BME280;18200;48.726;8.892;2023-02-26T06:38:18;96436.16;;;8.38;37.87
31595;BME280;18200;48.726;8.892;2023-02-26T06:42:19;96440.28;;;7.57;39.35
31595;BME280;18200;48.726;8.892;2023-02-26T06:46:19;96446.50;;;7.61;39.29
31595;BME280;18200;48.726;8.892;2023-02-26T06:50:20;96452.16;;;7.88;39.39
31595;BME280;18200;48.726;8.892;2023-02-26T06:54:20;96452.41;;;7.39;39.88
31595;BME280;18200;48.726;8.892;2023-02-26T06:58:20;96471.09;;;6.84;41.57
31595;BME280;18200;48.726;8.892;2023-02-26T07:02:22;96465.72;;;7.67;39.83
31595;BME280;18200;48.726;8.892;2023-02-26T07:06:23;96472.63;;;8.96;37.64
31595;BME280;18200;48.726;8.892;2023-02-26T07:10:23;96481.59;;;7.75;39.69
31595;BME280;18200;48.726;8.892;2023-02-26T07:14:24;96482.56;;;7.67;41.04
31595;BME280;18200;48.726;8.892;2023-02-26T07:18:24;96475.53;;;6.92;41.88
31595;BME280;18200;48.726;8.892;2023-02-26T07:22:25;96482.91;;;6.83;42.46
31595;BME280;18200;48.726;8.892;2023-02-26T07:26:25;96498.28;;;7.84;41.31
31595;BME280;18200;48.726;8.892;2023-02-26T07:30:25;96498.66;;;6.88;42.37
31595;BME280;18200;48.726;8.892;2023-02-26T07:34:27;96493.00;;;7.72;40.34
31595;BME280;18200;48.726;8.892;2023-02-26T07:38:27;96502.22;;;7.59;41.03
31595;BME280;18200;48.726;8.892;2023-02-26T07:42:27;96495.91;;;9.11;38.35
31595;BME280;18200;48.726;8.892;2023-02-26T07:46:28;96501.56;;;9.25;37.84
31595;BME280;18200;48.726;8.892;2023-02-26T07:50:28;96499.06;;;9.55;38.04
31595;BME280;18200;48.726;8.892;2023-02-26T07:54:29;96505.22;;;9.17;38.03
31595;BME280;18200;48.726;8.892;2023-02-26T07:58:29;96503.97;;;8.61;39.25
31595;BME280;18200;48.726;8.892;2023-02-26T08:02:30;96508.09;;;7.80;40.39
31595;BME280;18200;48.726;8.892;2023-02-26T08:06:30;96504.78;;;8.96;39.13
31595;BME280;18200;48.726;8.892;2023-02-26T08:10:31;96507.59;;;9.61;36.88
31595;BME280;18200;48.726;8.892;2023-02-26T08:14:31;96517.34;;;7.99;39.68
31595;BME280;18200;48.726;8.892;2023-02-26T08:18:31;96522.19;;;7.93;40.51
31595;BME280;18200;48.726;8.892;2023-02-26T08:22:32;96525.06;;;9.93;36.90
31595;BME280;18200;48.726;8.892;2023-02-26T08:26:36;96520.53;;;9.17;38.19
31595;BME280;18200;48.726;8.892;2023-02-26T08:30:37;96529.13;;;8.25;41.34
31595;BME280;18200;48.726;8.892;2023-02-26T08:34:37;96525.09;;;10.38;37.11
31595;BME280;18200;48.726;8.892;2023-02-26T08:38:38;96537.59;;;10.08;37.29
31595;BME280;18200;48.726;8.892;2023-02-26T08:42:38;96531.94;;;7.86;40.67
31595;BME280;18200;48.726;8.892;2023-02-26T08:46:39;96547.13;;;9.64;38.35
31595;BME280;18200;48.726;8.892;2023-02-26T08:50:39;96542.44;;;8.37;40.37
31595;BME280;18200;48.726;8.892;2023-02-26T08:54:40;96533.91;;;8.32;40.39
31595;BME280;18200;48.726;8.892;2023-02-26T08:58:40;96537.91;;;9.07;38.13
31595;BME280;18200;48.726;8.892;2023-02-26T09:02:40;96546.13;;;9.33;37.70
31595;BME280;18200;48.726;8.892;2023-02-26T09:06:41;96560.66;;;8.32;39.82
31595;BME280;18200;48.726;8.892;2023-02-26T09:10:42;96556.13;;;8.67;40.17
31595;BME280;18200;48.726;8.892;2023-02-26T09:14:42;96558.31;;;10.75;36.78
31595;BME280;18200;48.726;8.892;2023-02-26T09:18:43;96565.88;;;10.02;37.34
31595;BME280;18200;48.726;8.892;2023-02-26T09:22:43;96560.72;;;10.35;36.93
31595;BME280;18200;48.726;8.892;2023-02-26T09:26:43;96563.22;;;9.45;36.99
31595;BME280;18200;48.726;8.892;2023-02-26T09:30:44;96576.13;;;9.77;37.69
31595;BME280;18200;48.726;8.892;2023-02-26T09:34:44;96579.91;;;8.69;39.25
31595;BME280;18200;48.726;8.892;2023-02-26T09:38:44;96576.81;;;10.12;37.95
31595;BME280;18200;48.726;8.892;2023-02-26T09:43:06;96585.78;;;9.63;38.95
31595;BME280;18200;48.726;8.892;2023-02-26T09:47:30;96591.28;;;8.50;41.45
31595;BME280;18200;48.726;8.892;2023-02-26T09:51:38;96597.66;;;7.87;42.67
31595;BME280;18200;48.726;8.892;2023-02-26T09:55:45;96597.16;;;8.71;41.58
31595;BME280;18200;48.726;8.892;2023-02-26T09:59:46;96601.13;;;9.62;38.39
31595;BME280;18200;48.726;8.892;2023-02-26T10:08:06;96608.34;;;10.61;38.09
31595;BME280;18200;48.726;8.892;2023-02-26T10:12:13;96609.88;;;8.74;40.51
31595;BME280;18200;48.726;8.892;2023-02-26T10:16:20;96613.66;;;8.73;41.09
31595;BME280;18200;48.726;8.892;2023-02-26T10:20:53;96604.53;;;8.43;41.80
31595;BME280;18200;48.726;8.892;2023-02-26T10:25:19;96618.69;;;8.59;42.15
31595;BME280;18200;48.726;8.892;2023-02-26T10:29:27;96615.41;;;8.81;42.33
31595;BME280;18200;48.726;8.892;2023-02-26T10:33:38;96626.16;;;9.89;39.53
31595;BME280;18200;48.726;8.892;2023-02-26T10:37:45;96634.22;;;10.08;39.41
31595;BME280;18200;48.726;8.892;2023-02-26T10:41:48;96633.72;;;9.29;41.85
31595;BME280;18200;48.726;8.892;2023-02-26T10:54:26;96648.69;;;10.42;38.48
31595;BME280;18200;48.726;8.892;2023-02-26T10:58:27;96642.28;;;11.18;37.58
31595;BME280;18200;48.726;8.892;2023-02-26T11:02:39;96644.28;;;10.11;39.26
31595;BME280;18200;48.726;8.892;2023-02-26T11:06:57;96637.31;;;11.46;37.68
31595;BME280;18200;48.726;8.892;2023-02-26T11:11:00;96635.66;;;11.38;36.86
31595;BME280;18200;48.726;8.892;2023-02-26T11:15:01;96629.69;;;11.78;36.41
31595;BME280;18200;48.726;8.892;2023-02-26T11:19:04;96627.63;;;11.67;35.74
31595;BME280;18200;48.726;8.892;2023-02-26T11:23:11;96636.22;;;10.30;37.75
31595;BME280;18200;48.726;8.892;2023-02-26T11:27:16;96639.06;;;11.09;36.92
31595;BME280;18200;48.726;8.892;2023-02-26T11:31:20;96627.72;;;10.09;37.93
31595;BME280;18200;48.726;8.892;2023-02-26T11:35:23;96630.63;;;11.10;36.94
31595;BME280;18200;48.726;8.892;2023-02-26T11:39:26;96630.34;;;10.92;37.00
31595;BME280;18200;48.726;8.892;2023-02-26T11:43:44;96630.09;;;10.75;37.16
31595;BME280;18200;48.726;8.892;2023-02-26T11:47:46;96623.25;;;11.56;36.49
31595;BME280;18200;48.726;8.892;2023-02-26T11:51:58;96637.41;;;10.33;38.78
31595;BME280;18200;48.726;8.892;2023-02-26T11:56:03;96630.41;;;9.90;38.71
31595;BME280;18200;48.726;8.892;2023-02-26T12:00:18;96642.09;;;11.86;36.13
31595;BME280;18200;48.726;8.892;2023-02-26T12:04:24;96641.66;;;10.14;38.60
31595;BME280;18200;48.726;8.892;2023-02-26T12:08:35;96640.34;;;11.18;36.56
31595;BME280;18200;48.726;8.892;2023-02-26T12:12:53;96640.00;;;11.20;35.04
31595;BME280;18200;48.726;8.892;2023-02-26T12:21:47;96637.91;;;10.83;36.05
31595;BME280;18200;48.726;8.892;2023-02-26T12:26:02;96643.56;;;10.14;36.57
31595;BME280;18200;48.726;8.892;2023-02-26T12:35:06;96655.69;;;10.27;36.89
31595;BME280;18200;48.726;8.892;2023-02-26T12:43:30;96644.94;;;11.66;34.35
31595;BME280;18200;48.726;8.892;2023-02-26T12:52:19;96658.03;;;10.70;35.65
31595;BME280;18200;48.726;8.892;2023-02-26T13:09:57;96668.34;;;12.25;33.90
31595;BME280;18200;48.726;8.892;2023-02-26T13:14:43;96673.97;;;11.31;34.50
31595;BME280;18200;48.726;8.892;2023-02-26T13:23:09;96660.84;;;10.77;35.13
31595;BME280;18200;48.726;8.892;2023-02-26T13:27:14;96666.38;;;11.63;34.45
31595;BME280;18200;48.726;8.892;2023-02-26T13:31:22;96655.47;;;12.45;34.06
31595;BME280;18200;48.726;8.892;2023-02-26T13:35:39;96662.22;;;11.17;35.17
31595;BME280;18200;48.726;8.892;2023-02-26T13:39:47;96673.25;;;10.85;35.23
31595;BME280;18200;48.726;8.892;2023-02-26T13:44:16;96666.47;;;11.44;34.55
31595;BME280;18200;48.726;8.892;2023-02-26T13:52:53;96679.19;;;10.75;35.38
31595;BME280;18200;48.726;8.892;2023-02-26T14:01:25;96666.22;;;12.08;34.82
31595;BME280;18200;48.726;8.892;2023-02-26T14:10:12;96671.03;;;12.25;34.31
31595;BME280;18200;48.726;8.892;2023-02-26T14:18:29;96688.41;;;9.60;38.06
31595;BME280;18200;48.726;8.892;2023-02-26T14:26:33;96693.84;;;10.36;36.21
31595;BME280;18200;48.726;8.892;2023-02-26T14:30:34;96691.13;;;10.55;35.35
31595;BME280;18200;48.726;8.892;2023-02-26T14:34:47;96690.09;;;10.02;35.94
31595;BME280;18200;48.726;8.892;2023-02-26T14:38:50;96693.22;;;11.33;33.38
31595;BME280;18200;48.726;8.892;2023-02-26T14:42:57;96696.56;;;11.27;32.80
31595;BME280;18200;48.726;8.892;2023-02-26T14:46:59;96685.06;;;12.08;31.63
31595;BME280;18200;48.726;8.892;2023-02-26T14:51:19;96693.91;;;10.81;33.13
31595;BME280;18200;48.726;8.892;2023-02-26T15:09:06;96709.34;;;11.33;30.40
31595;BME280;18200;48.726;8.892;2023-02-26T15:26:07;96716.09;;;10.56;32.05
31595;BME280;18200;48.726;8.892;2023-02-26T15:30:14;96716.44;;;10.35;33.00
31595;BME280;18200;48.726;8.892;2023-02-26T15:34:15;96722.91;;;10.72;31.76
31595;BME280;18200;48.726;8.892;2023-02-26T15:38:16;96729.09;;;11.67;31.09
31595;BME280;18200;48.726;8.892;2023-02-26T15:42:18;96733.31;;;11.42;31.92
31595;BME280;18200;48.726;8.892;2023-02-26T15:46:24;96745.06;;;11.79;31.16
31595;BME280;18200;48.726;8.892;2023-02-26T15:50:33;96741.03;;;10.98;32.83
31595;BME280;18200;48.726;8.892;2023-02-26T15:54:47;96750.53;;;9.62;34.81
31595;BME280;18200;48.726;8.892;2023-02-26T15:59:03;96758.50;;;10.88;33.57
31595;BME280;18200;48.726;8.892;2023-02-26T16:03:05;96738.19;;;10.68;32.51
31595;BME280;18200;48.726;8.892;2023-02-26T16:07:08;96750.22;;;11.91;31.02
31595;BME280;18200;48.726;8.892;2023-02-26T16:11:09;96753.84;;;12.02;31.24
31595;BME280;18200;48.726;8.892;2023-02-26T16:15:31;96752.16;;;12.87;29.60
31595;BME280;18200;48.726;8.892;2023-02-26T16:19:42;96761.59;;;12.67;30.50
31595;BME280;18200;48.726;8.892;2023-02-26T16:23:47;96777.66;;;11.51;31.23
31595;BME280;18200;48.726;8.892;2023-02-26T16:28:05;96778.03;;;11.05;31.35
31595;BME280;18200;48.726;8.892;2023-02-26T16:32:09;96782.09;;;11.18;31.11
31595;BME280;18200;48.726;8.892;2023-02-26T16:36:14;96802.31;;;11.12;31.19
31595;BME280;18200;48.726;8.892;2023-02-26T16:40:19;96801.19;;;10.71;32.19
31595;BME280;18200;48.726;8.892;2023-02-26T16:48:46;96821.72;;;10.25;32.65
31595;BME280;18200;48.726;8.892;2023-02-26T16:53:00;96827.66;;;10.15;33.39
31595;BME280;18200;48.726;8.892;2023-02-26T16:57:16;96837.81;;;9.75;33.05
31595;BME280;18200;48.726;8.892;2023-02-26T17:01:18;96844.84;;;11.48;30.61
31595;BME280;18200;48.726;8.892;2023-02-26T17:05:25;96846.63;;;11.63;29.85
31595;BME280;18200;48.726;8.892;2023-02-26T17:13:31;96853.00;;;10.71;31.11
31595;BME280;18200;48.726;8.892;2023-02-26T17:17:31;96857.78;;;10.24;32.38
31595;BME280;18200;48.726;8.892;2023-02-26T17:21:32;96856.16;;;9.73;32.36
31595;BME280;18200;48.726;8.892;2023-02-26T17:25:42;96870.94;;;9.98;33.21
31595;BME280;18200;48.726;8.892;2023-02-26T17:29:45;96873.50;;;11.59;30.97
31595;BME280;18200;48.726;8.892;2023-02-26T17:33:50;96871.94;;;11.17;31.98
31595;BME280;18200;48.726;8.892;2023-02-26T17:37:51;96872.84;;;11.66;31.50
31595;BME280;18200;48.726;8.892;2023-02-26T17:41:53;96891.63;;;10.82;32.13
31595;BME280;18200;48.726;8.892;2023-02-26T17:45:54;96890.56;;;10.87;32.36
31595;BME280;18200;48.726;8.892;2023-02-26T17:49:54;96904.16;;;9.78;33.48
31595;BME280;18200;48.726;8.892;2023-02-26T17:53:55;96908.72;;;10.74;32.15
31595;BME280;18200;48.726;8.892;2023-02-26T17:57:56;96903.91;;;9.52;33.73
31595;BME280;18200;48.726;8.892;2023-02-26T18:01:56;96905.31;;;10.58;32.08
31595;BME280;18200;48.726;8.892;2023-02-26T18:05:57;96911.47;;;10.24;32.04
31595;BME280;18200;48.726;8.892;2023-02-26T18:09:57;96918.91;;;10.15;32.20
31595;BME280;18200;48.726;8.892;2023-02-26T18:13:58;96916.19;;;11.00;30.69
31595;BME280;18200;48.726;8.892;2023-02-26T18:17:58;96921.22;;;10.67;31.26
31595;BME280;18200;48.726;8.892;2023-02-26T18:21:58;96917.06;;;9.72;32.30
31595;BME280;18200;48.726;8.892;2023-02-26T18:25:59;96924.53;;;9.35;33.19
31595;BME280;18200;48.726;8.892;2023-02-26T18:30:02;96917.28;;;11.18;30.68
31595;BME280;18200;48.726;8.892;2023-02-26T18:34:03;96921.72;;;9.16;33.17
31595;BME280;18200;48.726;8.892;2023-02-26T18:38:04;96915.84;;;9.70;32.96
31595;BME280;18200;48.726;8.892;2023-02-26T18:42:04;96924.69;;;10.33;31.99
31595;BME280;18200;48.726;8.892;2023-02-26T18:46:04;96929.06;;;9.63;32.60
31595;BME280;18200;48.726;8.892;2023-02-26T18:50:07;96929.25;;;9.70;32.76
31595;BME280;18200;48.726;8.892;2023-02-26T18:54:08;96934.44;;;9.63;32.76
31595;BME280;18200;48.726;8.892;2023-02-26T18:58:10;96938.66;;;9.20;33.26
31595;BME280;18200;48.726;8.892;2023-02-26T19:02:11;96931.88;;;10.79;30.60
31595;BME280;18200;48.726;8.892;2023-02-26T19:06:12;96938.22;;;8.27;33.80
31595;BME280;18200;48.726;8.892;2023-02-26T19:10:13;96933.75;;;8.31;33.40
31595;BME280;18200;48.726;8.892;2023-02-26T19:14:14;96946.72;;;8.81;33.07
31595;BME280;18200;48.726;8.892;2023-02-26T19:18:14;96948.13;;;8.50;33.76
31595;BME280;18200;48.726;8.892;2023-02-26T19:22:15;96957.03;;;9.06;32.23
31595;BME280;18200;48.726;8.892;2023-02-26T19:26:15;96952.97;;;9.68;32.23
31595;BME280;18200;48.726;8.892;2023-02-26T19:30:15;96964.41;;;10.93;30.26
31595;BME280;18200;48.726;8.892;2023-02-26T19:34:18;96958.53;;;10.06;31.56
31595;BME280;18200;48.726;8.892;2023-02-26T19:38:18;96962.84;;;9.95;31.90
31595;BME280;18200;48.726;8.892;2023-02-26T19:42:19;96963.91;;;10.87;30.28
31595;BME280;18200;48.726;8.892;2023-02-26T19:46:19;96973.94;;;9.22;31.60
31595;BME280;18200;48.726;8.892;2023-02-26T19:50:20;96977.75;;;10.39;31.56
31595;BME280;18200;48.726;8.892;2023-02-26T19:54:24;96994.88;;;10.81;30.12
31595;BME280;18200;48.726;8.892;2023-02-26T19:58:24;96993.06;;;9.92;31.69
31595;BME280;18200;48.726;8.892;2023-02-26T20:02:29;97002.41;;;9.27;33.39
31595;BME280;18200;48.726;8.892;2023-02-26T20:06:30;97010.59;;;10.48;31.39
31595;BME280;18200;48.726;8.892;2023-02-26T20:10:30;97013.78;;;10.07;32.41
31595;BME280;18200;48.726;8.892;2023-02-26T20:14:31;97014.59;;;10.39;31.38
31595;BME280;18200;48.726;8.892;2023-02-26T20:18:32;97019.75;;;10.78;30.71
31595;BME280;18200;48.726;8.892;2023-02-26T20:22:32;97023.84;;;10.57;31.36
31595;BME280;18200;48.726;8.892;2023-02-26T20:26:33;97019.88;;;10.35;31.36
31595;BME280;18200;48.726;8.892;2023-02-26T20:30:33;97029.78;;;9.20;33.18
31595;BME280;18200;48.726;8.892;2023-02-26T20:34:34;97028.88;;;10.27;32.09
31595;BME280;18200;48.726;8.892;2023-02-26T20:38:34;97031.91;;;10.26;30.78
31595;BME280;18200;48.726;8.892;2023-02-26T20:42:35;97034.44;;;10.34;31.46
31595;BME280;18200;48.726;8.892;2023-02-26T20:46:36;97037.72;;;9.84;31.54
31595;BME280;18200;48.726;8.892;2023-02-26T20:50:38;97040.41;;;10.59;31.84
31595;BME280;18200;48.726;8.892;2023-02-26T20:54:38;97037.50;;;10.05;32.43
31595;BME280;18200;48.726;8.892;2023-02-26T20:58:39;97044.22;;;9.83;32.05
31595;BME280;18200;48.726;8.892;2023-02-26T21:02:41;97050.19;;;9.65;32.15
31595;BME280;18200;48.726;8.892;2023-02-26T21:06:42;97057.91;;;9.94;32.54
31595;BME280;18200;48.726;8.892;2023-02-26T21:10:42;97054.84;;;9.12;32.78
31595;BME280;18200;48.726;8.892;2023-02-26T21:14:43;97054.88;;;8.76;33.90
31595;BME280;18200;48.726;8.892;2023-02-26T21:18:43;97053.63;;;9.50;33.36
31595;BME280;18200;48.726;8.892;2023-02-26T21:22:44;97048.41;;;9.96;32.13
31595;BME280;18200;48.726;8.892;2023-02-26T21:26:45;97048.50;;;8.81;33.89
31595;BME280;18200;48.726;8.892;2023-02-26T21:30:45;97060.81;;;9.33;33.21
31595;BME280;18200;48.726;8.892;2023-02-26T21:34:45;97068.81;;;9.46;32.80
31595;BME280;18200;48.726;8.892;2023-02-26T21:38:46;97057.31;;;8.93;33.59
31595;BME280;18200;48.726;8.892;2023-02-26T21:42:47;97056.88;;;8.91;34.05
31595;BME280;18200;48.726;8.892;2023-02-26T21:46:47;97054.09;;;9.39;33.47
31595;BME280;18200;48.726;8.892;2023-02-26T21:50:47;97054.00;;;10.50;31.70
31595;BME280;18200;48.726;8.892;2023-02-26T21:54:49;97065.03;;;8.71;34.24
31595;BME280;18200;48.726;8.892;2023-02-26T21:58:49;97058.88;;;8.94;34.22
31595;BME280;18200;48.726;8.892;2023-02-26T22:02:50;97063.97;;;9.63;33.12
31595;BME280;18200;48.726;8.892;2023-02-26T22:06:50;97064.78;;;8.39;34.60
31595;BME280;18200;48.726;8.892;2023-02-26T22:10:50;97059.97;;;10.59;31.64
31595;BME280;18200;48.726;8.892;2023-02-26T22:14:51;97059.66;;;8.95;34.11
31595;BME280;18200;48.726;8.892;2023-02-26T22:18:51;97056.34;;;8.86;34.25
31595;BME280;18200;48.726;8.892;2023-02-26T22:22:52;97052.53;;;9.38;33.80
31595;BME280;18200;48.726;8.892;2023-02-26T22:26:52;97049.41;;;9.36;33.79
31595;BME280;18200;48.726;8.892;2023-02-26T22:30:53;97046.09;;;9.83;32.80
31595;BME280;18200;48.726;8.892;2023-02-26T22:34:55;97055.09;;;8.95;34.83
31595;BME280;18200;48.726;8.892;2023-02-26T22:38:55;97053.63;;;9.50;33.78
31595;BME280;18200;48.726;8.892;2023-02-26T22:42:56;97058.91;;;8.58;35.01
31595;BME280;18200;48.726;8.892;2023-02-26T22:46:56;97058.66;;;9.11;35.04
31595;BME280;18200;48.726;8.892;2023-02-26T22:50:57;97050.72;;;9.98;32.47
31595;BME280;18200;48.726;8.892;2023-02-26T22:54:57;97051.69;;;10.05;32.49
31595;BME280;18200;48.726;8.892;2023-02-26T22:58:57;97060.03;;;9.61;33.53
31595;BME280;18200;48.726;8.892;2023-02-26T23:02:58;97060.22;;;8.40;35.46
31595;BME280;18200;48.726;8.892;2023-02-26T23:06:58;97077.50;;;9.55;33.81
31595;BME280;18200;48.726;8.892;2023-02-26T23:11:00;97072.84;;;9.52;34.34
31595;BME280;18200;48.726;8.892;2023-02-26T23:15:01;97065.63;;;9.68;33.37
31595;BME280;18200;48.726;8.892;2023-02-26T23:19:02;97072.72;;;9.08;33.97
31595;BME280;18200;48.726;8.892;2023-02-26T23:23:02;97076.47;;;9.31;34.47
31595;BME280;18200;48.726;8.892;2023-02-26T23:27:03;97064.38;;;9.93;33.09
31595;BME280;18200;48.726;8.892;2023-02-26T23:31:03;97066.00;;;9.54;33.91
31595;BME280;18200;48.726;8.892;2023-02-26T23:35:05;97068.53;;;9.63;33.97
31595;BME280;18200;48.726;8.892;2023-02-26T23:39:06;97074.53;;;9.44;33.90